Mirtidiotissa — SX8100 — position and weather

sailwx.info

Track history (hours):
 
Tides and Currents Weather Stations Pressure Air Temp Water Temp Dewpoint Dewpoint Depression Visibility Wind Speed Wind Dir Waves Ship Positions

Mirtidiotissa

Last reported at 2017-Nov-23 15:50 UTC. Time now 2017-Nov-24 14:46 UTC.
Position N 37°10' E 025°17'.

Length 26 m; draft 2.5 m.

Type: Fishing. MMSI: 237418000.

Date/timePositionNaut miles runAvg speedWind from/ knotsBaromVisibWave heightAir tempDewpointWater temp
2017-Nov-23 15:50N 37°10' E 025°17'3 9.9
2017-Nov-23 15:31N 37°07' E 025°19'4 7.5
2017-Nov-23 15:00N 37°04' E 025°21'2 4.4
2017-Nov-23 14:30N 37°02' E 025°20'5 9.7
2017-Nov-23 14:00N 36°59' E 025°16'5 9.8
2017-Nov-23 13:30N 36°55' E 025°11'5 9.9
2017-Nov-23 13:00N 36°52' E 025°07'4 8.8
2017-Nov-23 12:30N 36°48' E 025°03'1 1.3
2017-Nov-23 12:00N 36°48' E 025°03'2 3.1
2017-Nov-23 11:31N 36°47' E 025°02'2 3.0
2017-Nov-23 11:00N 36°46' E 025°00'1 3.0
2017-Nov-23 10:30N 36°45' E 024°59'2 3.1
2017-Nov-23 10:00N 36°45' E 024°57'2 3.8
2017-Nov-23 09:30N 36°45' E 024°54'1 2.8
2017-Nov-23 09:00N 36°45' E 024°53'1 1.7
2017-Nov-23 08:30N 36°45' E 024°54'0 0.9
2017-Nov-23 08:00N 36°45' E 024°54'1 2.9
2017-Nov-23 07:30N 36°45' E 024°56'1 2.9
2017-Nov-23 07:00N 36°45' E 024°58'1 2.9
2017-Nov-23 06:31N 36°45' E 024°59'2 3.0
2017-Nov-23 06:01N 36°46' E 025°01'1 3.0
2017-Nov-23 05:31N 36°47' E 025°03'2 3.0
2017-Nov-23 05:00N 36°48' E 025°04'2 3.2
2017-Nov-23 04:30N 36°48' E 025°06'9 1.8
2017-Nov-22 23:41N 36°53' E 025°15'0 2.7
2017-Nov-22 23:30N 36°52' E 025°15'1 2.8
2017-Nov-22 23:01N 36°51' E 025°15'1 2.8
2017-Nov-22 22:30N 36°50' E 025°17'2 2.9
2017-Nov-22 21:59N 36°51' E 025°18'1 2.6
2017-Nov-22 21:30N 36°51' E 025°20'1 2.7
2017-Nov-22 21:00N 36°52' E 025°21'1 1.2
2017-Nov-22 20:30N 36°52' E 025°22'2 3.2
2017-Nov-22 20:00N 36°51' E 025°21'1 2.6
2017-Nov-22 19:30N 36°50' E 025°19'  
2017-Nov-19 23:14N 37°15' E 025°30'1 2.9
2017-Nov-19 23:00N 37°15' E 025°30'2 2.7
2017-Nov-19 22:18N 37°14' E 025°28'1 2.9
2017-Nov-19 22:01N 37°13' E 025°27'1 2.8
2017-Nov-19 21:30N 37°13' E 025°25'3 5.2
2017-Nov-19 21:01N 37°12' E 025°22'5 9.4
2017-Nov-19 20:31N 37°07' E 025°21'1 2.7
2017-Nov-19 20:00N 37°06' E 025°22'0 0.0
2017-Nov-19 19:30N 37°06' E 025°22'0 0.0
2017-Nov-19 19:00N 37°06' E 025°22'0 0.0
2017-Nov-19 18:30N 37°06' E 025°22'0 0.0
2017-Nov-19 18:01N 37°06' E 025°22'0 0.0
2017-Nov-19 17:30N 37°06' E 025°22'0 0.0
2017-Nov-19 16:58N 37°06' E 025°22'0 0.0
2017-Nov-19 16:30N 37°06' E 025°22'0 0.0
2017-Nov-19 16:00N 37°06' E 025°22'0 0.0
2017-Nov-19 15:30N 37°06' E 025°22'0 0.0
2017-Nov-19 15:00N 37°06' E 025°22'3 5.4
2017-Nov-19 14:30N 37°05' E 025°19'5 9.8
2017-Nov-19 14:00N 37°01' E 025°17'3 0.1
2017-Nov-17 21:33N 36°59' E 025°19'0 9.1
2017-Nov-17 21:30N 36°59' E 025°19'4 8.6
2017-Nov-17 21:01N 37°04' E 025°18'4 7.9
2017-Nov-17 20:30N 37°06' E 025°22'0 0.5
2017-Nov-17 20:00N 37°06' E 025°22'0 0.0
2017-Nov-17 19:30N 37°06' E 025°22'0 0.0
2017-Nov-17 19:00N 37°06' E 025°22'0 0.0
2017-Nov-17 18:30N 37°06' E 025°22'0 0.0
2017-Nov-17 18:00N 37°06' E 025°22'0 0.0
2017-Nov-17 17:29N 37°06' E 025°22'0 0.0
2017-Nov-17 16:59N 37°06' E 025°22'0 0.0
2017-Nov-17 16:30N 37°06' E 025°22'0 0.0
2017-Nov-17 16:00N 37°06' E 025°22'0 0.0
2017-Nov-17 15:30N 37°06' E 025°22'1 2.0
2017-Nov-17 15:00N 37°07' E 025°23'5 9.8
2017-Nov-17 14:29N 37°11' E 025°28'16 1.9
2017-Nov-17 06:04N 37°17' E 025°45'0 3.1
2017-Nov-17 06:00N 37°17' E 025°45'2 3.1
2017-Nov-17 05:30N 37°16' E 025°45'3 4.6
2017-Nov-17 04:58N 37°13' E 025°44'1 1.8
2017-Nov-17 04:30N 37°14' E 025°44'9 4.7
2017-Nov-17 02:36N 37°15' E 025°33'2 2.7
2017-Nov-17 01:53N 37°15' E 025°30'1 2.7
2017-Nov-17 01:30N 37°15' E 025°29'2 2.8
2017-Nov-17 00:39N 37°13' E 025°27'1 2.8
2017-Nov-17 00:28N 37°13' E 025°26'1 3.0
2017-Nov-17 00:01N 37°13' E 025°24'1 1.9
2017-Nov-16 23:30N 37°13' E 025°23'1 2.4
2017-Nov-16 22:59N 37°13' E 025°25'1 2.8
2017-Nov-16 22:30N 37°13' E 025°26'1 2.8
2017-Nov-16 22:00N 37°14' E 025°28'1 3.0
2017-Nov-16 21:31N 37°15' E 025°29'3 2.6
2017-Nov-16 20:10N 37°18' E 025°30'3 1.3
2017-Nov-16 17:33N 37°15' E 025°30'0 3.0
2017-Nov-16 17:28N 37°15' E 025°30'1 2.9
2017-Nov-16 17:00N 37°14' E 025°28'2 4.2
2017-Nov-16 16:30N 37°13' E 025°26'510.2
2017-Nov-16 16:00N 37°09' E 025°22'3 5.2
2017-Nov-16 15:30N 37°06' E 025°22'0 0.1
2017-Nov-16 15:00N 37°06' E 025°22'3 6.9
2017-Nov-16 14:30N 37°09' E 025°20'5 9.7
2017-Nov-16 14:00N 37°11' E 025°14'8 3.1
2017-Nov-16 11:22N 37°08' E 025°04'3 9.5
2017-Nov-16 11:01N 37°08' E 025°00'15 2.3
2017-Nov-16 04:26N 37°18' E 024°46'3 6.2
2017-Nov-16 04:00N 37°17' E 024°49'510.0
2017-Nov-16 03:30N 37°16' E 024°55'1 2.3
2017-Nov-16 03:01N 37°16' E 024°56'1 2.9
2017-Nov-16 02:31N 37°14' E 024°57'1 2.9
2017-Nov-16 02:01N 37°14' E 024°59'1 2.9
2017-Nov-16 01:30N 37°14' E 025°01'2 3.4
2017-Nov-16 00:55N 37°13' E 025°03'1 1.1
2017-Nov-16 00:24N 37°14' E 025°04'1 2.9
2017-Nov-16 00:00N 37°15' E 025°05'7 2.1
2017-Nov-15 20:31N 37°20' E 024°59'0 3.0
2017-Nov-15 20:29N 37°20' E 024°59'1 3.0
2017-Nov-15 20:00N 37°20' E 024°57'1 2.9
2017-Nov-15 19:31N 37°18' E 024°58'2 3.9
2017-Nov-15 19:01N 37°17' E 024°59'0 0.5
2017-Nov-15 18:31N 37°17' E 024°59'1 2.8
2017-Nov-15 18:01N 37°17' E 024°57'1 2.9
2017-Nov-15 17:30N 37°16' E 024°56'1 2.7
2017-Nov-15 17:00N 37°17' E 024°54'1 2.8
2017-Nov-15 16:31N 37°18' E 024°53'2 3.3
2017-Nov-15 16:00N 37°19' E 024°52'5 9.0
2017-Nov-15 15:30N 37°18' E 024°47'1 0.1
2017-Nov-15 04:19N 37°17' E 024°46'310.3
2017-Nov-15 04:00N 37°17' E 024°50'0 1.0
2017-Nov-15 03:30N 37°18' E 024°50'1 2.7
2017-Nov-15 02:59N 37°19' E 024°50'1 2.7
2017-Nov-15 02:30N 37°21' E 024°50'1 2.9
2017-Nov-15 02:00N 37°22' E 024°50'2 4.3
2017-Nov-15 01:30N 37°20' E 024°50'1 2.0
2017-Nov-15 01:00N 37°20' E 024°51'1 2.9
2017-Nov-15 00:31N 37°20' E 024°53'2 3.0
2017-Nov-15 00:00N 37°19' E 024°54'1 2.8
2017-Nov-14 23:30N 37°18' E 024°56'1 2.8
2017-Nov-14 23:00N 37°18' E 024°58'2 4.8
2017-Nov-14 22:30N 37°18' E 025°01'4 1.5
2017-Nov-14 19:34N 37°14' E 025°02'0 2.8
2017-Nov-14 19:29N 37°14' E 025°02'1 2.8
2017-Nov-14 19:00N 37°13' E 025°01'2 3.6
2017-Nov-14 18:30N 37°11' E 024°60'5 9.6
2017-Nov-14 18:00N 37°08' E 025°04'1 0.5
2017-Nov-14 15:22N 37°07' E 025°05'3 8.4
2017-Nov-14 15:00N 37°08' E 025°02'5 9.1
2017-Nov-14 14:30N 37°10' E 024°56'10 1.0
2017-Nov-14 04:22N 37°16' E 024°47'410.2
2017-Nov-14 04:00N 37°16' E 024°51'510.1
2017-Nov-14 03:31N 37°15' E 024°58'3 5.9
2017-Nov-14 03:00N 37°15' E 025°01'2 2.7
2017-Nov-14 02:14N 37°16' E 025°04'4 2.3
2017-Nov-14 00:30N 37°18' E 025°08'2 2.8
2017-Nov-13 23:40N 37°20' E 025°07'2 3.0
2017-Nov-13 23:09N 37°21' E 025°07'0 2.9
2017-Nov-13 22:59N 37°22' E 025°07'1 2.9
2017-Nov-13 22:30N 37°23' E 025°08'2 3.4
2017-Nov-13 22:00N 37°25' E 025°08'  
Track history (hours):
 
Tides and Currents Weather Stations Pressure Air Temp Water Temp Dewpoint Dewpoint Depression Visibility Wind Speed Wind Dir Waves Ship Positions

Mirtidiotissa

Last reported at 2017-Nov-23 15:50 UTC. Time now 2017-Nov-24 14:46 UTC.
Position N 37°10' E 025°17'.

Length 26 m; draft 2.5 m.

Type: Fishing. MMSI: 237418000.

Date/timePositionNaut miles runAvg speedWind from/ knotsBaromVisibWave heightAir tempDewpointWater temp
2017-Nov-23 15:50N 37°10' E 025°17'3 9.9
2017-Nov-23 15:31N 37°07' E 025°19'4 7.5
2017-Nov-23 15:00N 37°04' E 025°21'2 4.4
2017-Nov-23 14:30N 37°02' E 025°20'5 9.7
2017-Nov-23 14:00N 36°59' E 025°16'5 9.8
2017-Nov-23 13:30N 36°55' E 025°11'5 9.9
2017-Nov-23 13:00N 36°52' E 025°07'4 8.8
2017-Nov-23 12:30N 36°48' E 025°03'1 1.3
2017-Nov-23 12:00N 36°48' E 025°03'2 3.1
2017-Nov-23 11:31N 36°47' E 025°02'2 3.0
2017-Nov-23 11:00N 36°46' E 025°00'1 3.0
2017-Nov-23 10:30N 36°45' E 024°59'2 3.1
2017-Nov-23 10:00N 36°45' E 024°57'2 3.8
2017-Nov-23 09:30N 36°45' E 024°54'1 2.8
2017-Nov-23 09:00N 36°45' E 024°53'1 1.7
2017-Nov-23 08:30N 36°45' E 024°54'0 0.9
2017-Nov-23 08:00N 36°45' E 024°54'1 2.9
2017-Nov-23 07:30N 36°45' E 024°56'1 2.9
2017-Nov-23 07:00N 36°45' E 024°58'1 2.9
2017-Nov-23 06:31N 36°45' E 024°59'2 3.0
2017-Nov-23 06:01N 36°46' E 025°01'1 3.0
2017-Nov-23 05:31N 36°47' E 025°03'2 3.0
2017-Nov-23 05:00N 36°48' E 025°04'2 3.2
2017-Nov-23 04:30N 36°48' E 025°06'9 1.8
2017-Nov-22 23:41N 36°53' E 025°15'0 2.7
2017-Nov-22 23:30N 36°52' E 025°15'1 2.8
2017-Nov-22 23:01N 36°51' E 025°15'1 2.8
2017-Nov-22 22:30N 36°50' E 025°17'2 2.9
2017-Nov-22 21:59N 36°51' E 025°18'1 2.6
2017-Nov-22 21:30N 36°51' E 025°20'1 2.7
2017-Nov-22 21:00N 36°52' E 025°21'1 1.2
2017-Nov-22 20:30N 36°52' E 025°22'2 3.2
2017-Nov-22 20:00N 36°51' E 025°21'1 2.6
2017-Nov-22 19:30N 36°50' E 025°19'  
2017-Nov-19 23:14N 37°15' E 025°30'1 2.9
2017-Nov-19 23:00N 37°15' E 025°30'2 2.7
2017-Nov-19 22:18N 37°14' E 025°28'1 2.9
2017-Nov-19 22:01N 37°13' E 025°27'1 2.8
2017-Nov-19 21:30N 37°13' E 025°25'3 5.2
2017-Nov-19 21:01N 37°12' E 025°22'5 9.4
2017-Nov-19 20:31N 37°07' E 025°21'1 2.7
2017-Nov-19 20:00N 37°06' E 025°22'0 0.0
2017-Nov-19 19:30N 37°06' E 025°22'0 0.0
2017-Nov-19 19:00N 37°06' E 025°22'0 0.0
2017-Nov-19 18:30N 37°06' E 025°22'0 0.0
2017-Nov-19 18:01N 37°06' E 025°22'0 0.0
2017-Nov-19 17:30N 37°06' E 025°22'0 0.0
2017-Nov-19 16:58N 37°06' E 025°22'0 0.0
2017-Nov-19 16:30N 37°06' E 025°22'0 0.0
2017-Nov-19 16:00N 37°06' E 025°22'0 0.0
2017-Nov-19 15:30N 37°06' E 025°22'0 0.0
2017-Nov-19 15:00N 37°06' E 025°22'3 5.4
2017-Nov-19 14:30N 37°05' E 025°19'5 9.8
2017-Nov-19 14:00N 37°01' E 025°17'3 0.1
2017-Nov-17 21:33N 36°59' E 025°19'0 9.1
2017-Nov-17 21:30N 36°59' E 025°19'4 8.6
2017-Nov-17 21:01N 37°04' E 025°18'4 7.9
2017-Nov-17 20:30N 37°06' E 025°22'0 0.5
2017-Nov-17 20:00N 37°06' E 025°22'0 0.0
2017-Nov-17 19:30N 37°06' E 025°22'0 0.0
2017-Nov-17 19:00N 37°06' E 025°22'0 0.0
2017-Nov-17 18:30N 37°06' E 025°22'0 0.0
2017-Nov-17 18:00N 37°06' E 025°22'0 0.0
2017-Nov-17 17:29N 37°06' E 025°22'0 0.0
2017-Nov-17 16:59N 37°06' E 025°22'0 0.0
2017-Nov-17 16:30N 37°06' E 025°22'0 0.0
2017-Nov-17 16:00N 37°06' E 025°22'0 0.0
2017-Nov-17 15:30N 37°06' E 025°22'1 2.0
2017-Nov-17 15:00N 37°07' E 025°23'5 9.8
2017-Nov-17 14:29N 37°11' E 025°28'16 1.9
2017-Nov-17 06:04N 37°17' E 025°45'0 3.1
2017-Nov-17 06:00N 37°17' E 025°45'2 3.1
2017-Nov-17 05:30N 37°16' E 025°45'3 4.6
2017-Nov-17 04:58N 37°13' E 025°44'1 1.8
2017-Nov-17 04:30N 37°14' E 025°44'9 4.7
2017-Nov-17 02:36N 37°15' E 025°33'2 2.7
2017-Nov-17 01:53N 37°15' E 025°30'1 2.7
2017-Nov-17 01:30N 37°15' E 025°29'2 2.8
2017-Nov-17 00:39N 37°13' E 025°27'1 2.8
2017-Nov-17 00:28N 37°13' E 025°26'1 3.0
2017-Nov-17 00:01N 37°13' E 025°24'1 1.9
2017-Nov-16 23:30N 37°13' E 025°23'1 2.4
2017-Nov-16 22:59N 37°13' E 025°25'1 2.8
2017-Nov-16 22:30N 37°13' E 025°26'1 2.8
2017-Nov-16 22:00N 37°14' E 025°28'1 3.0
2017-Nov-16 21:31N 37°15' E 025°29'3 2.6
2017-Nov-16 20:10N 37°18' E 025°30'3 1.3
2017-Nov-16 17:33N 37°15' E 025°30'0 3.0
2017-Nov-16 17:28N 37°15' E 025°30'1 2.9
2017-Nov-16 17:00N 37°14' E 025°28'2 4.2
2017-Nov-16 16:30N 37°13' E 025°26'510.2
2017-Nov-16 16:00N 37°09' E 025°22'3 5.2
2017-Nov-16 15:30N 37°06' E 025°22'0 0.1
2017-Nov-16 15:00N 37°06' E 025°22'3 6.9
2017-Nov-16 14:30N 37°09' E 025°20'5 9.7
2017-Nov-16 14:00N 37°11' E 025°14'8 3.1
2017-Nov-16 11:22N 37°08' E 025°04'3 9.5
2017-Nov-16 11:01N 37°08' E 025°00'15 2.3
2017-Nov-16 04:26N 37°18' E 024°46'3 6.2
2017-Nov-16 04:00N 37°17' E 024°49'510.0
2017-Nov-16 03:30N 37°16' E 024°55'1 2.3
2017-Nov-16 03:01N 37°16' E 024°56'1 2.9
2017-Nov-16 02:31N 37°14' E 024°57'1 2.9
2017-Nov-16 02:01N 37°14' E 024°59'1 2.9
2017-Nov-16 01:30N 37°14' E 025°01'2 3.4
2017-Nov-16 00:55N 37°13' E 025°03'1 1.1
2017-Nov-16 00:24N 37°14' E 025°04'1 2.9
2017-Nov-16 00:00N 37°15' E 025°05'7 2.1
2017-Nov-15 20:31N 37°20' E 024°59'0 3.0
2017-Nov-15 20:29N 37°20' E 024°59'1 3.0
2017-Nov-15 20:00N 37°20' E 024°57'1 2.9
2017-Nov-15 19:31N 37°18' E 024°58'2 3.9
2017-Nov-15 19:01N 37°17' E 024°59'0 0.5
2017-Nov-15 18:31N 37°17' E 024°59'1 2.8
2017-Nov-15 18:01N 37°17' E 024°57'1 2.9
2017-Nov-15 17:30N 37°16' E 024°56'1 2.7
2017-Nov-15 17:00N 37°17' E 024°54'1 2.8
2017-Nov-15 16:31N 37°18' E 024°53'2 3.3
2017-Nov-15 16:00N 37°19' E 024°52'5 9.0
2017-Nov-15 15:30N 37°18' E 024°47'1 0.1
2017-Nov-15 04:19N 37°17' E 024°46'310.3
2017-Nov-15 04:00N 37°17' E 024°50'0 1.0
2017-Nov-15 03:30N 37°18' E 024°50'1 2.7
2017-Nov-15 02:59N 37°19' E 024°50'1 2.7
2017-Nov-15 02:30N 37°21' E 024°50'1 2.9
2017-Nov-15 02:00N 37°22' E 024°50'2 4.3
2017-Nov-15 01:30N 37°20' E 024°50'1 2.0
2017-Nov-15 01:00N 37°20' E 024°51'1 2.9
2017-Nov-15 00:31N 37°20' E 024°53'2 3.0
2017-Nov-15 00:00N 37°19' E 024°54'1 2.8
2017-Nov-14 23:30N 37°18' E 024°56'1 2.8
2017-Nov-14 23:00N 37°18' E 024°58'2 4.8
2017-Nov-14 22:30N 37°18' E 025°01'4 1.5
2017-Nov-14 19:34N 37°14' E 025°02'0 2.8
2017-Nov-14 19:29N 37°14' E 025°02'1 2.8
2017-Nov-14 19:00N 37°13' E 025°01'2 3.6
2017-Nov-14 18:30N 37°11' E 024°60'5 9.6
2017-Nov-14 18:00N 37°08' E 025°04'1 0.5
2017-Nov-14 15:22N 37°07' E 025°05'3 8.4
2017-Nov-14 15:00N 37°08' E 025°02'5 9.1
2017-Nov-14 14:30N 37°10' E 024°56'10 1.0
2017-Nov-14 04:22N 37°16' E 024°47'410.2
2017-Nov-14 04:00N 37°16' E 024°51'510.1
2017-Nov-14 03:31N 37°15' E 024°58'3 5.9
2017-Nov-14 03:00N 37°15' E 025°01'2 2.7
2017-Nov-14 02:14N 37°16' E 025°04'4 2.3
2017-Nov-14 00:30N 37°18' E 025°08'2 2.8
2017-Nov-13 23:40N 37°20' E 025°07'2 3.0
2017-Nov-13 23:09N 37°21' E 025°07'0 2.9
2017-Nov-13 22:59N 37°22' E 025°07'1 2.9
2017-Nov-13 22:30N 37°23' E 025°08'2 3.4
2017-Nov-13 22:00N 37°25' E 025°08'  

Dump ship's entire track history